createdAt,value
2022-10-08T00:02:07.699Z,102232.09
2022-10-08T00:04:36.506Z,102227.41
2022-10-08T00:07:05.194Z,102222.25
2022-10-08T00:09:34.042Z,102222.21
2022-10-08T00:12:03.085Z,102216.84
2022-10-08T00:14:31.820Z,102210.48
2022-10-08T00:17:00.382Z,102207.60
2022-10-08T00:19:28.896Z,102208.20
2022-10-08T00:21:57.482Z,102208.91
2022-10-08T00:24:27.066Z,102208.16
2022-10-08T00:26:55.868Z,102206.36
2022-10-08T00:29:24.412Z,102202.98
2022-10-08T00:31:53.121Z,102202.14
2022-10-08T00:34:25.868Z,102199.75
2022-10-08T00:36:55.874Z,102194.88
2022-10-08T00:39:25.500Z,102194.33
2022-10-08T00:41:56.020Z,102192.46
2022-10-08T00:45:00.628Z,102191.92
2022-10-08T00:47:46.990Z,102192.70
2022-10-08T00:50:30.495Z,102187.91
2022-10-08T00:53:07.925Z,102181.72
2022-10-08T00:55:43.606Z,102178.81
2022-10-08T00:58:20.349Z,102177.70
2022-10-08T01:00:49.249Z,102177.64
2022-10-08T01:03:18.111Z,102176.05
2022-10-08T01:06:28.933Z,102168.94
2022-10-08T01:09:02.433Z,102171.91
2022-10-08T01:11:54.996Z,102171.75
2022-10-08T01:14:45.140Z,102171.81
2022-10-08T01:17:21.981Z,102166.11
2022-10-08T01:20:31.422Z,102163.89
2022-10-08T01:23:28.020Z,102163.86
2022-10-08T01:26:43.269Z,102158.67
2022-10-08T01:29:37.112Z,102161.73
2022-10-08T01:32:16.527Z,102164.74
2022-10-08T01:35:09.668Z,102162.02
2022-10-08T01:37:42.373Z,102164.91
2022-10-08T01:40:27.650Z,102166.96
2022-10-08T01:43:00.915Z,102165.80
2022-10-08T01:45:38.029Z,102165.18
2022-10-08T01:48:15.063Z,102159.31
2022-10-08T01:51:33.041Z,102153.63
2022-10-08T01:54:09.337Z,102157.60
2022-10-08T01:56:40.101Z,102158.27
2022-10-08T01:59:20.348Z,102156.41
2022-10-08T02:02:04.019Z,102155.79
2022-10-08T02:04:33.333Z,102155.80
2022-10-08T02:07:07.728Z,102158.11
2022-10-08T02:09:44.678Z,102156.54
2022-10-08T02:12:14.694Z,102158.41
2022-10-08T02:14:48.185Z,102156.70
2022-10-08T02:17:38.386Z,102157.10
2022-10-08T02:20:22.838Z,102160.56
2022-10-08T02:23:00.630Z,102164.84
2022-10-08T02:25:49.316Z,102161.79
2022-10-08T02:28:30.021Z,102161.98
2022-10-08T02:31:26.503Z,102165.26
2022-10-08T02:34:11.975Z,102163.38
2022-10-08T02:36:45.784Z,102163.25
2022-10-08T02:39:15.726Z,102161.26
2022-10-08T02:41:49.519Z,102163.52
2022-10-08T02:44:28.921Z,102158.61
2022-10-08T02:47:00.581Z,102155.73
2022-10-08T02:49:34.097Z,102152.80
2022-10-08T02:52:09.249Z,102152.50
2022-10-08T02:54:43.188Z,102150.67
2022-10-08T02:57:24.700Z,102149.52
2022-10-08T02:59:53.133Z,102145.49
2022-10-08T03:02:53.052Z,102145.75
2022-10-08T03:05:22.786Z,102149.44
2022-10-08T03:07:52.225Z,102149.46
2022-10-08T03:10:24.765Z,102149.16
2022-10-08T03:13:01.437Z,102146.91
2022-10-08T03:15:34.400Z,102145.80
2022-10-08T03:18:06.875Z,102145.42
2022-10-08T03:20:46.360Z,102148.54
2022-10-08T03:23:18.401Z,102148.60
2022-10-08T03:25:47.067Z,102144.71
2022-10-08T03:28:15.980Z,102142.09
2022-10-08T03:30:45.031Z,102141.66
2022-10-08T03:33:15.981Z,102126.56
2022-10-08T03:35:47.835Z,102140.65
2022-10-08T03:38:16.665Z,102137.40
2022-10-08T03:40:55.244Z,102140.45
2022-10-08T03:43:24.740Z,102137.80
2022-10-08T03:45:54.625Z,102133.58
2022-10-08T03:48:23.987Z,102131.73
2022-10-08T03:51:05.242Z,102128.36
2022-10-08T03:53:37.131Z,102127.16
2022-10-08T03:56:15.366Z,102128.65
2022-10-08T03:58:44.493Z,102130.80
2022-10-08T04:01:16.846Z,102127.37
2022-10-08T04:03:46.354Z,102126.58
2022-10-08T04:06:15.701Z,102122.64
2022-10-08T04:08:44.976Z,102124.40
2022-10-08T04:11:16.982Z,102120.89
2022-10-08T04:13:46.128Z,102117.29
2022-10-08T04:16:18.424Z,102112.06
2022-10-08T04:18:48.869Z,102113.04
2022-10-08T04:21:19.669Z,102113.88
2022-10-08T04:23:52.028Z,102115.91
2022-10-08T04:26:43.038Z,102113.55
2022-10-08T04:29:13.068Z,102118.37
2022-10-08T04:31:41.747Z,102119.56
2022-10-08T04:34:11.835Z,102120.73
2022-10-08T04:36:40.841Z,102117.82
2022-10-08T04:39:09.617Z,102111.14
2022-10-08T04:41:38.257Z,102117.43
2022-10-08T04:47:36.885Z,102118.90
2022-10-08T04:50:06.514Z,102118.90
2022-10-08T04:52:35.230Z,102119.94
2022-10-08T04:55:03.964Z,102122.09
2022-10-08T04:57:32.831Z,102124.69
2022-10-08T05:00:19.121Z,102124.31
2022-10-08T05:02:48.431Z,102126.04
2022-10-08T05:05:19.305Z,102128.73
2022-10-08T05:07:47.894Z,102127.18
2022-10-08T05:10:16.635Z,102125.84
2022-10-08T05:12:45.736Z,102127.19
2022-10-08T05:15:14.921Z,102127.79
2022-10-08T05:17:43.661Z,102129.97
2022-10-08T05:20:12.461Z,102124.63
2022-10-08T05:22:41.675Z,102122.83
2022-10-08T05:25:14.230Z,102125.57
2022-10-08T05:27:42.974Z,102127.35
2022-10-08T05:30:12.091Z,102128.88
2022-10-08T05:32:42.557Z,102127.78
2022-10-08T05:35:11.198Z,102128.61
2022-10-08T05:37:39.976Z,102127.44
2022-10-08T05:40:09.556Z,102125.88
2022-10-08T05:42:38.956Z,102133.13
2022-10-08T05:45:08.867Z,102129.70
2022-10-08T05:47:37.459Z,102130.93
2022-10-08T05:50:06.715Z,102128.61
2022-10-08T05:52:35.318Z,102125.82
2022-10-08T05:55:04.124Z,102127.77
2022-10-08T05:57:32.812Z,102133.16
2022-10-08T06:00:01.728Z,102133.77
2022-10-08T06:02:40.325Z,102127.14
2022-10-08T06:05:09.750Z,102123.95
2022-10-08T06:07:38.382Z,102122.92
2022-10-08T06:10:08.155Z,102120.23
2022-10-08T06:12:36.732Z,102122.98
2022-10-08T06:15:06.604Z,102123.13
2022-10-08T06:17:35.338Z,102123.33
2022-10-08T06:20:04.132Z,102122.40
2022-10-08T06:22:33.037Z,102121.60
2022-10-08T06:25:01.832Z,102123.14
2022-10-08T06:27:30.955Z,102120.27
2022-10-08T06:29:59.750Z,102119.24
2022-10-08T06:32:28.407Z,102120.00
2022-10-08T06:34:57.064Z,102119.52
2022-10-08T06:37:25.629Z,102119.89
2022-10-08T06:39:54.208Z,102116.87
2022-10-08T06:42:22.953Z,102112.39
2022-10-08T06:44:52.859Z,102105.23
2022-10-08T06:47:21.457Z,102106.45
2022-10-08T06:49:50.062Z,102100.77
2022-10-08T06:52:18.542Z,102096.37
2022-10-08T06:54:47.490Z,102088.78
2022-10-08T06:57:16.119Z,102089.06
2022-10-08T06:59:45.042Z,102084.89
2022-10-08T07:02:13.844Z,102086.27
2022-10-08T07:04:42.818Z,102083.30
2022-10-08T07:07:11.645Z,102077.15
2022-10-08T07:09:40.432Z,102074.83
2022-10-08T07:12:09.063Z,102075.66
2022-10-08T07:14:37.712Z,102072.21
2022-10-08T07:17:06.459Z,102068.40
2022-10-08T07:19:35.179Z,102066.69
2022-10-08T07:22:03.818Z,102065.55
2022-10-08T07:24:32.412Z,102064.75
2022-10-08T07:27:01.331Z,102066.37
2022-10-08T07:29:29.868Z,102062.69
2022-10-08T07:31:58.498Z,102056.83
2022-10-08T07:34:27.292Z,102052.04
2022-10-08T07:36:56.099Z,102056.40
2022-10-08T07:39:24.719Z,102053.95
2022-10-08T07:41:54.132Z,102049.45
2022-10-08T07:44:22.793Z,102047.13
2022-10-08T07:46:53.550Z,102044.66
2022-10-08T07:49:22.237Z,102042.93
2022-10-08T07:51:51.133Z,102039.55
2022-10-08T07:54:20.741Z,102034.77
2022-10-08T07:56:49.425Z,102022.75
2022-10-08T07:59:18.263Z,102021.06
2022-10-08T08:01:47.146Z,102017.00
2022-10-08T08:04:16.022Z,102014.45
2022-10-08T08:06:52.539Z,102009.61
2022-10-08T08:09:21.507Z,102012.61
2022-10-08T08:11:50.484Z,102009.40
2022-10-08T08:14:20.043Z,102003.23
2022-10-08T08:16:49.113Z,101998.66
2022-10-08T08:19:18.029Z,101995.31
2022-10-08T08:21:46.679Z,101991.08
2022-10-08T08:24:16.766Z,101985.97
2022-10-08T08:26:45.534Z,101983.17
2022-10-08T08:29:19.341Z,101981.06
2022-10-08T08:31:49.743Z,101976.67
2022-10-08T08:34:21.939Z,101974.52
2022-10-08T08:36:53.947Z,101977.61
2022-10-08T08:39:25.097Z,101973.59
2022-10-08T08:42:15.518Z,101976.25
2022-10-08T08:44:47.828Z,101972.30
2022-10-08T08:47:27.104Z,101965.97
2022-10-08T08:50:33.839Z,101966.02
2022-10-08T08:53:04.433Z,101961.42
2022-10-08T08:55:39.106Z,101963.67
2022-10-08T08:58:21.233Z,101959.69
2022-10-08T09:00:58.352Z,101953.91
2022-10-08T09:03:52.817Z,101954.16
2022-10-08T09:06:24.593Z,101947.06
2022-10-08T09:09:08.052Z,101942.70
2022-10-08T09:11:38.062Z,101940.65
2022-10-08T09:14:14.739Z,101935.73
2022-10-08T09:16:43.937Z,101931.88
2022-10-08T09:19:12.626Z,101926.15
2022-10-08T09:21:41.168Z,101927.23
2022-10-08T09:24:11.151Z,101924.35
2022-10-08T09:26:41.185Z,101925.95
2022-10-08T09:29:32.678Z,101922.71
2022-10-08T09:32:02.800Z,101923.52
2022-10-08T09:34:31.998Z,101921.83
2022-10-08T09:37:06.355Z,101920.41
2022-10-08T09:39:37.732Z,101917.82
2022-10-08T09:42:20.244Z,101914.91
2022-10-08T09:44:59.301Z,101915.33
2022-10-08T09:47:28.049Z,101914.10
2022-10-08T09:50:22.080Z,101910.65
2022-10-08T09:52:53.185Z,101902.95
2022-10-08T09:55:35.394Z,101895.20
2022-10-08T09:58:05.530Z,101895.31
2022-10-08T10:00:39.855Z,101879.52
2022-10-08T10:03:18.471Z,101878.27
2022-10-08T10:05:52.320Z,101872.50
2022-10-08T10:08:49.419Z,101868.30
2022-10-08T10:11:33.837Z,101866.73
2022-10-08T10:14:16.612Z,101861.20
2022-10-08T10:16:46.556Z,101859.85
2022-10-08T10:19:30.933Z,101854.34
2022-10-08T10:22:06.490Z,101853.88
2022-10-08T10:25:28.936Z,101851.52
2022-10-08T10:28:09.117Z,101846.59
2022-10-08T10:31:28.950Z,101839.59
2022-10-08T10:34:18.793Z,101836.43
2022-10-08T10:37:22.585Z,101830.08
2022-10-08T10:40:18.454Z,101824.57
2022-10-08T10:42:56.323Z,101819.30
2022-10-08T10:45:36.609Z,101818.89
2022-10-08T10:48:08.293Z,101817.73
2022-10-08T10:50:43.076Z,101814.71
2022-10-08T10:53:36.792Z,101811.33
2022-10-08T10:56:22.339Z,101803.46
2022-10-08T10:59:10.549Z,101798.06
2022-10-08T11:02:16.422Z,101792.34
2022-10-08T11:05:07.176Z,101786.34
2022-10-08T11:08:22.605Z,101782.38
2022-10-08T11:11:34.251Z,101776.18
2022-10-08T11:14:13.699Z,101772.89
2022-10-08T11:17:21.949Z,101769.04
2022-10-08T11:20:31.728Z,101763.60
2022-10-08T11:23:18.579Z,101758.95
2022-10-08T11:26:20.426Z,101750.81
2022-10-08T11:28:59.150Z,101741.30
2022-10-08T11:31:40.965Z,101735.34
2022-10-08T11:34:35.297Z,101726.98
2022-10-08T11:37:38.977Z,101727.02
2022-10-08T11:40:14.811Z,101722.90
2022-10-08T11:42:55.678Z,101721.75
2022-10-08T11:45:24.801Z,101720.98
2022-10-08T11:47:55.417Z,101718.83
2022-10-08T11:50:33.665Z,101714.94
2022-10-08T11:53:14.064Z,101708.03
2022-10-08T11:55:58.471Z,101706.52
2022-10-08T11:58:31.205Z,101704.17
2022-10-08T12:01:07.722Z,101701.18
2022-10-08T12:03:42.007Z,101701.09
2022-10-08T12:06:27.594Z,101698.98
2022-10-08T12:08:59.256Z,101693.60
2022-10-08T12:11:37.682Z,101688.41
2022-10-08T12:14:12.846Z,101686.79
2022-10-08T12:16:47.806Z,101687.50
2022-10-08T12:19:35.366Z,101687.06
2022-10-08T12:22:16.840Z,101681.58
2022-10-08T12:24:52.062Z,101679.91
2022-10-08T12:27:21.370Z,101677.27
2022-10-08T12:30:10.038Z,101674.46
2022-10-08T12:32:45.045Z,101668.96
2022-10-08T12:35:31.651Z,101668.56
2022-10-08T12:38:16.359Z,101669.20
2022-10-08T12:40:58.606Z,101669.83
2022-10-08T12:43:57.121Z,101666.83
2022-10-08T12:47:01.663Z,101664.89
2022-10-08T12:50:11.068Z,101665.76
2022-10-08T12:52:39.701Z,101661.42
2022-10-08T12:55:17.272Z,101655.48
2022-10-08T12:57:50.225Z,101655.10
2022-10-08T13:00:28.868Z,101649.95
2022-10-08T13:03:07.588Z,101648.48
2022-10-08T13:05:40.792Z,101648.41
2022-10-08T13:08:39.620Z,101647.48
2022-10-08T13:11:15.948Z,101646.23
2022-10-08T13:13:45.067Z,101644.36
2022-10-08T13:16:25.771Z,101649.05
2022-10-08T13:18:59.904Z,101652.71
2022-10-08T13:21:31.660Z,101646.75
2022-10-08T13:24:22.543Z,101643.41
2022-10-08T13:26:55.973Z,101638.80
2022-10-08T13:29:24.546Z,101637.60
2022-10-08T13:32:17.243Z,101634.80
2022-10-08T13:34:54.288Z,101633.78
2022-10-08T13:37:22.850Z,101628.22
2022-10-08T13:40:01.468Z,101628.14
2022-10-08T13:42:59.171Z,101624.14
2022-10-08T13:45:39.255Z,101617.88
2022-10-08T13:48:15.263Z,101618.84
2022-10-08T13:50:50.262Z,101615.15
2022-10-08T13:53:23.487Z,101615.41
2022-10-08T13:55:52.653Z,101612.48
2022-10-08T13:58:21.701Z,101613.20
2022-10-08T14:00:50.802Z,101611.17
2022-10-08T14:03:19.932Z,101609.45
2022-10-08T14:05:49.140Z,101606.73
2022-10-08T14:08:25.375Z,101603.28
2022-10-08T14:10:58.206Z,101597.61
2022-10-08T14:13:29.663Z,101597.20
2022-10-08T14:15:58.577Z,101591.88
2022-10-08T14:18:27.298Z,101589.66
2022-10-08T14:20:55.876Z,101590.63
2022-10-08T14:23:24.505Z,101591.11
2022-10-08T14:25:53.857Z,101587.30
2022-10-08T14:28:22.713Z,101590.70
2022-10-08T14:30:51.412Z,101595.66
2022-10-08T14:33:20.011Z,101591.58
2022-10-08T14:35:53.959Z,101591.44
2022-10-08T14:38:22.810Z,101589.06
2022-10-08T14:40:51.533Z,101586.89
2022-10-08T14:43:20.330Z,101585.83
2022-10-08T14:45:49.794Z,101585.89
2022-10-08T14:48:18.732Z,101583.33
2022-10-08T14:50:47.605Z,101582.84
2022-10-08T14:53:16.223Z,101579.88
2022-10-08T14:56:07.492Z,101578.93
2022-10-08T14:58:33.941Z,101581.84
2022-10-08T15:01:02.746Z,101580.80
2022-10-08T15:03:31.834Z,101578.80
2022-10-08T15:06:01.106Z,101575.96
2022-10-08T15:08:30.232Z,101576.98
2022-10-08T15:11:03.600Z,101577.73
2022-10-08T15:13:32.393Z,101576.59
2022-10-08T15:16:01.054Z,101576.36
2022-10-08T15:18:31.795Z,101577.31
2022-10-08T15:21:00.927Z,101576.55
2022-10-08T15:23:30.162Z,101580.46
2022-10-08T15:26:02.164Z,101584.14
2022-10-08T15:28:31.911Z,101583.91
2022-10-08T15:31:05.544Z,101585.00
2022-10-08T15:33:42.482Z,101589.75
2022-10-08T15:36:32.356Z,101590.52
2022-10-08T15:39:03.044Z,101592.84
2022-10-08T15:41:36.267Z,101591.71
2022-10-08T15:44:24.184Z,101593.56
2022-10-08T15:47:02.183Z,101588.56
2022-10-08T15:49:39.130Z,101592.40
2022-10-08T15:52:13.761Z,101593.11
2022-10-08T15:54:43.031Z,101593.63
2022-10-08T15:57:14.167Z,101594.27
2022-10-08T15:59:43.020Z,101595.25
2022-10-08T16:02:17.051Z,101596.39
2022-10-08T16:04:48.051Z,101595.29
2022-10-08T16:07:17.520Z,101598.36
2022-10-08T16:09:46.126Z,101603.12
2022-10-08T16:12:14.773Z,101605.52
2022-10-08T16:14:43.495Z,101605.45
2022-10-08T16:17:12.192Z,101608.25
2022-10-08T16:19:42.137Z,101606.50
2022-10-08T16:22:11.174Z,101608.73
2022-10-08T16:24:42.295Z,101610.50
2022-10-08T16:27:10.985Z,101610.88
2022-10-08T16:29:39.602Z,101611.34
2022-10-08T16:32:11.165Z,101610.36
2022-10-08T16:34:42.947Z,101612.42
2022-10-08T16:37:13.661Z,101609.23
2022-10-08T16:39:42.411Z,101609.40
2022-10-08T16:42:11.180Z,101610.63
2022-10-08T16:44:39.855Z,101608.84
2022-10-08T16:47:09.274Z,101602.90
2022-10-08T16:49:37.886Z,101605.11
2022-10-08T16:52:08.478Z,101608.41
2022-10-08T16:54:37.265Z,101611.37
2022-10-08T16:57:06.040Z,101612.70
2022-10-08T16:59:34.671Z,101612.84
2022-10-08T17:02:03.661Z,101613.17
2022-10-08T17:04:39.199Z,101613.58
2022-10-08T17:07:08.013Z,101612.88
2022-10-08T17:09:37.156Z,101610.93
2022-10-08T17:12:05.923Z,101611.48
2022-10-08T17:14:34.672Z,101612.15
2022-10-08T17:17:03.702Z,101612.62
2022-10-08T17:19:32.254Z,101615.46
2022-10-08T17:22:01.056Z,101617.73
2022-10-08T17:24:29.726Z,101615.98
2022-10-08T17:26:58.219Z,101618.56
2022-10-08T17:29:26.758Z,101621.80
2022-10-08T17:31:59.979Z,101623.20
2022-10-08T17:34:29.041Z,101621.69
2022-10-08T17:36:57.596Z,101620.48
2022-10-08T17:39:26.647Z,101615.05
2022-10-08T17:41:56.079Z,101622.67
2022-10-08T17:44:24.728Z,101624.95
2022-10-08T17:46:53.467Z,101624.09
2022-10-08T17:49:22.181Z,101626.10
2022-10-08T17:51:51.194Z,101627.93
2022-10-08T17:54:21.099Z,101629.06
2022-10-08T17:56:49.945Z,101629.54
2022-10-08T17:59:22.808Z,101632.42
2022-10-08T18:01:52.099Z,101633.21
2022-10-08T18:04:21.296Z,101634.11
2022-10-08T18:06:50.024Z,101630.60
2022-10-08T18:09:21.135Z,101632.99
2022-10-08T18:11:53.606Z,101628.39
2022-10-08T18:14:22.690Z,101628.66
2022-10-08T18:16:51.762Z,101627.13
2022-10-08T18:19:20.624Z,101627.60
2022-10-08T18:21:50.383Z,101627.02
2022-10-08T18:24:22.293Z,101629.25
2022-10-08T18:26:51.811Z,101631.77
2022-10-08T18:29:20.636Z,101630.14
2022-10-08T18:31:49.246Z,101626.92
2022-10-08T18:34:18.936Z,101626.65
2022-10-08T18:36:47.821Z,101625.25
2022-10-08T18:39:21.586Z,101626.06
2022-10-08T18:41:54.977Z,101624.08
2022-10-08T18:44:26.151Z,101624.95
2022-10-08T18:46:54.797Z,101627.64
2022-10-08T18:49:30.838Z,101626.46
2022-10-08T18:52:01.697Z,101631.90
2022-10-08T18:54:31.007Z,101631.33
2022-10-08T18:57:00.566Z,101635.02
2022-10-08T18:59:31.414Z,101636.95
2022-10-08T19:02:00.972Z,101638.61
2022-10-08T19:04:29.842Z,101635.34
2022-10-08T19:06:58.486Z,101636.31
2022-10-08T19:09:27.174Z,101640.30
2022-10-08T19:11:57.573Z,101637.92
2022-10-08T19:14:26.346Z,101637.67
2022-10-08T19:16:55.443Z,101633.94
2022-10-08T19:19:27.709Z,101635.12
2022-10-08T19:21:56.427Z,101631.94
2022-10-08T19:24:26.353Z,101630.02
2022-10-08T19:26:56.073Z,101633.27
2022-10-08T19:29:29.545Z,101630.58
2022-10-08T19:31:58.823Z,101629.36
2022-10-08T19:34:28.101Z,101626.53
2022-10-08T19:36:56.894Z,101625.69
2022-10-08T19:39:28.369Z,101627.19
2022-10-08T19:41:57.311Z,101627.98
2022-10-08T19:44:26.269Z,101626.77
2022-10-08T19:46:55.158Z,101623.54
2022-10-08T19:49:24.666Z,101622.88
2022-10-08T19:51:54.474Z,101625.21
2022-10-08T19:54:23.155Z,101631.08
2022-10-08T19:56:51.968Z,101629.89
2022-10-08T19:59:20.757Z,101633.76
2022-10-08T20:01:49.394Z,101636.78
2022-10-08T20:04:18.303Z,101634.97
2022-10-08T20:06:46.974Z,101636.00
2022-10-08T20:09:15.693Z,101635.92
2022-10-08T20:11:46.286Z,101637.48
2022-10-08T20:14:15.540Z,101639.05
2022-10-08T20:16:44.440Z,101637.98
2022-10-08T20:19:22.397Z,101638.62
2022-10-08T20:21:51.830Z,101635.12
2022-10-08T20:24:20.454Z,101636.39
2022-10-08T20:26:49.999Z,101633.36
2022-10-08T20:29:21.758Z,101628.95
2022-10-08T20:31:55.376Z,101630.39
2022-10-08T20:34:31.515Z,101629.54
2022-10-08T20:37:02.516Z,101633.65
2022-10-08T20:39:31.314Z,101635.77
2022-10-08T20:41:59.874Z,101635.70
2022-10-08T20:44:28.419Z,101636.92
2022-10-08T20:46:57.003Z,101632.71
2022-10-08T20:49:26.189Z,101629.50
2022-10-08T20:51:54.663Z,101630.44
2022-10-08T20:54:28.162Z,101627.59
2022-10-08T20:56:57.247Z,101630.45
2022-10-08T20:59:26.068Z,101628.66
2022-10-08T21:01:54.715Z,101630.44
2022-10-08T21:04:23.211Z,101626.63
2022-10-08T21:06:51.706Z,101625.39
2022-10-08T21:09:22.254Z,101628.75
2022-10-08T21:11:50.822Z,101622.45
2022-10-08T21:14:22.614Z,101623.84
2022-10-08T21:16:53.681Z,101624.83
2022-10-08T21:19:23.299Z,101624.79
2022-10-08T21:21:52.802Z,101623.56
2022-10-08T21:24:21.522Z,101620.48
2022-10-08T21:26:50.063Z,101625.77
2022-10-08T21:29:18.715Z,101624.96
2022-10-08T21:31:47.487Z,101620.42
2022-10-08T21:34:16.190Z,101615.45
2022-10-08T21:36:44.918Z,101614.69
2022-10-08T21:39:17.496Z,101614.49
2022-10-08T21:41:46.812Z,101611.45
2022-10-08T21:44:15.533Z,101611.52
2022-10-08T21:46:44.636Z,101608.50
2022-10-08T21:49:17.258Z,101604.97
2022-10-08T21:51:45.846Z,101606.59
2022-10-08T21:54:16.146Z,101602.86
2022-10-08T21:56:45.271Z,101603.94
2022-10-08T21:59:15.747Z,101603.98
2022-10-08T22:01:50.038Z,101602.13
2022-10-08T22:04:21.858Z,101598.85
2022-10-08T22:06:53.673Z,101596.86
2022-10-08T22:09:26.157Z,101594.15
2022-10-08T22:11:56.357Z,101591.80
2022-10-08T22:14:25.480Z,101589.66
2022-10-08T22:16:54.483Z,101589.71
2022-10-08T22:19:23.180Z,101587.73
2022-10-08T22:21:52.648Z,101585.23
2022-10-08T22:24:21.546Z,101585.30
2022-10-08T22:26:50.105Z,101579.55
2022-10-08T22:29:18.811Z,101577.88
2022-10-08T22:31:47.444Z,101577.79
2022-10-08T22:34:16.074Z,101574.30
2022-10-08T22:36:45.297Z,101572.73
2022-10-08T22:39:14.217Z,101569.84
2022-10-08T22:41:42.881Z,101571.20
2022-10-08T22:44:11.529Z,101568.95
2022-10-08T22:46:40.983Z,101559.52
2022-10-08T22:49:12.635Z,101555.27
2022-10-08T22:51:41.448Z,101563.65
2022-10-08T22:54:10.667Z,101565.27
2022-10-08T22:56:39.290Z,101567.47
2022-10-08T22:59:08.160Z,101568.50
2022-10-08T23:01:36.746Z,101564.26
2022-10-08T23:04:05.322Z,101564.81
2022-10-08T23:06:34.839Z,101564.02
2022-10-08T23:09:10.705Z,101565.64
2022-10-08T23:11:39.322Z,101565.67
2022-10-08T23:14:07.759Z,101567.70
2022-10-08T23:16:36.406Z,101570.33
2022-10-08T23:19:08.189Z,101565.77
2022-10-08T23:21:38.055Z,101562.92
2022-10-08T23:24:06.787Z,101562.33
2022-10-08T23:26:36.476Z,101557.04
2022-10-08T23:29:05.593Z,101552.09
2022-10-08T23:31:37.076Z,101550.51
2022-10-08T23:34:07.371Z,101553.33
2022-10-08T23:36:39.790Z,101552.90
2022-10-08T23:39:12.989Z,101552.14
2022-10-08T23:41:42.127Z,101554.89
2022-10-08T23:44:11.887Z,101551.36
2022-10-08T23:46:40.447Z,101549.60
2022-10-08T23:49:09.697Z,101551.77
2022-10-08T23:51:38.252Z,101550.23
2022-10-08T23:54:06.805Z,101550.24
2022-10-08T23:56:35.396Z,101546.88
2022-10-08T23:59:03.860Z,101544.73
